createdAt,value
2023-07-16T12:32:31.336Z,37.45
2023-07-16T12:35:01.709Z,39.10
2023-07-16T12:37:31.804Z,39.75
2023-07-16T12:40:01.658Z,38.30
2023-07-16T12:42:30.665Z,37.29
2023-07-16T12:45:00.369Z,37.75
2023-07-16T12:47:29.474Z,37.81
2023-07-16T12:49:58.544Z,38.15
2023-07-16T12:52:27.434Z,38.60
2023-07-16T12:54:58.553Z,38.19
2023-07-16T12:57:27.920Z,37.74
2023-07-16T12:59:56.867Z,37.26
2023-07-16T13:02:26.087Z,37.66
2023-07-16T13:04:55.286Z,38.14
2023-07-16T13:07:24.017Z,38.43
2023-07-16T13:10:04.408Z,38.85
2023-07-16T13:12:37.408Z,38.49
2023-07-16T13:15:07.834Z,37.73
2023-07-16T13:17:38.457Z,38.23
2023-07-16T13:20:09.194Z,38.48
2023-07-16T13:22:38.202Z,38.33
2023-07-16T13:25:08.222Z,38.38
2023-07-16T13:27:37.023Z,38.75
2023-07-16T13:30:07.448Z,39.04
2023-07-16T13:32:36.355Z,38.46
2023-07-16T13:35:05.905Z,37.79
2023-07-16T13:37:34.630Z,37.86
2023-07-16T13:40:04.566Z,37.93
2023-07-16T13:42:33.319Z,38.00
2023-07-16T13:45:02.374Z,38.49
2023-07-16T13:47:31.220Z,38.54
2023-07-16T13:50:00.172Z,37.77
2023-07-16T13:52:29.198Z,37.83
2023-07-16T13:54:58.333Z,37.08
2023-07-16T13:57:28.045Z,38.20
2023-07-16T13:59:56.959Z,38.62
2023-07-16T14:02:26.720Z,38.38
2023-07-16T14:04:55.819Z,38.98
2023-07-16T14:07:25.005Z,39.08
2023-07-16T14:09:53.906Z,39.59
2023-07-16T14:12:22.790Z,39.67
2023-07-16T14:14:54.757Z,40.49
2023-07-16T14:17:23.949Z,40.00
2023-07-16T14:19:54.278Z,39.75
2023-07-16T14:22:27.930Z,39.50
2023-07-16T14:24:56.715Z,39.09
2023-07-16T14:27:25.760Z,39.86
2023-07-16T14:30:05.052Z,40.88
2023-07-16T14:32:36.449Z,42.72
2023-07-16T14:35:08.015Z,42.54
2023-07-16T14:37:40.068Z,41.42
2023-07-16T14:40:10.291Z,41.11
2023-07-16T14:42:39.179Z,41.62
2023-07-16T14:45:09.530Z,41.36
2023-07-16T14:47:38.470Z,41.70
2023-07-16T14:50:08.402Z,41.50
2023-07-16T14:52:38.339Z,41.37
2023-07-16T14:55:08.050Z,40.86
2023-07-16T14:57:37.175Z,40.97
2023-07-16T15:00:08.859Z,41.19
2023-07-16T15:02:38.418Z,40.56
2023-07-16T15:05:09.566Z,40.72
2023-07-16T15:07:39.261Z,39.36
2023-07-16T15:10:09.089Z,38.85
2023-07-16T15:12:37.977Z,39.51
2023-07-16T15:15:12.202Z,38.35
2023-07-16T15:17:41.421Z,38.13
2023-07-16T15:20:12.101Z,38.68
2023-07-16T15:22:41.040Z,39.49
2023-07-16T15:25:10.388Z,40.25
2023-07-16T15:27:39.350Z,40.39
2023-07-16T15:30:09.752Z,40.49
2023-07-16T15:32:38.766Z,40.61
2023-07-16T15:35:08.449Z,40.98
2023-07-16T15:37:37.322Z,40.99
2023-07-16T15:40:24.443Z,40.86
2023-07-16T15:42:54.565Z,40.79
2023-07-16T15:45:23.632Z,40.75
2023-07-16T15:47:58.723Z,40.34
2023-07-16T15:50:29.462Z,39.96
2023-07-16T15:52:58.434Z,40.52
2023-07-16T15:55:27.524Z,41.20
2023-07-16T15:57:56.466Z,41.37
2023-07-16T16:00:28.094Z,40.76
2023-07-16T16:02:57.073Z,40.98
2023-07-16T16:05:26.198Z,40.72
2023-07-16T16:08:20.722Z,40.75
2023-07-16T16:10:54.280Z,40.75
2023-07-16T16:13:24.807Z,40.95
2023-07-16T16:15:54.129Z,41.40
2023-07-16T16:18:25.148Z,40.87
2023-07-16T16:20:55.367Z,40.64
2023-07-16T16:23:24.554Z,41.10
2023-07-16T16:25:53.469Z,40.85
2023-07-16T16:28:23.568Z,41.06
2023-07-16T16:30:52.489Z,41.01
2023-07-16T16:33:21.348Z,40.61
2023-07-16T16:35:50.455Z,40.69
2023-07-16T16:38:19.231Z,40.03
2023-07-16T16:40:48.442Z,40.05
2023-07-16T16:43:17.526Z,39.78
2023-07-16T16:45:47.348Z,39.72
2023-07-16T16:48:16.276Z,39.45
2023-07-16T16:50:45.241Z,39.22
2023-07-16T16:53:14.796Z,39.15
2023-07-16T16:55:45.995Z,39.23
2023-07-16T16:58:15.079Z,38.88
2023-07-16T17:00:45.666Z,38.66
2023-07-16T17:03:15.934Z,38.39
2023-07-16T17:05:45.141Z,38.03
2023-07-16T17:08:14.222Z,37.67
2023-07-16T17:10:43.248Z,37.56
2023-07-16T17:13:12.228Z,37.35
2023-07-16T17:15:47.854Z,37.22
2023-07-16T17:18:17.683Z,37.04
2023-07-16T17:20:46.518Z,36.92
2023-07-16T17:23:15.594Z,36.50
2023-07-16T17:25:44.466Z,36.26
2023-07-16T17:28:13.362Z,36.08
2023-07-16T17:30:42.345Z,35.51
2023-07-16T17:33:13.476Z,34.78
2023-07-16T17:35:42.373Z,34.11
2023-07-16T17:38:11.376Z,33.59
2023-07-16T17:40:40.260Z,33.19
2023-07-16T17:43:09.476Z,32.78
2023-07-16T17:45:38.455Z,32.41
2023-07-16T17:48:07.782Z,32.17
2023-07-16T17:50:36.588Z,31.88
2023-07-16T17:53:05.772Z,31.61
2023-07-16T17:55:34.668Z,31.39
2023-07-16T17:58:03.530Z,31.24
2023-07-16T18:00:32.358Z,30.96
2023-07-16T18:03:01.912Z,30.77
2023-07-16T18:05:31.436Z,30.61
2023-07-16T18:08:00.206Z,30.38
2023-07-16T18:10:30.635Z,30.25
2023-07-16T18:12:59.672Z,30.16
2023-07-16T18:15:28.538Z,30.03
2023-07-16T18:17:57.541Z,29.90
2023-07-16T18:20:27.555Z,29.77
2023-07-16T18:22:56.966Z,29.63
2023-07-16T18:25:26.293Z,29.51
2023-07-16T18:27:56.374Z,29.40
2023-07-16T18:30:25.381Z,29.32
2023-07-16T18:32:54.309Z,29.20
2023-07-16T18:35:23.773Z,29.12
2023-07-16T18:37:52.658Z,29.01
2023-07-16T18:40:21.606Z,28.90
2023-07-16T18:42:50.435Z,28.84
2023-07-16T18:45:19.640Z,28.74
2023-07-16T18:47:48.624Z,28.67
2023-07-16T18:50:17.828Z,28.60
2023-07-16T18:52:47.139Z,28.53
2023-07-16T18:55:16.688Z,28.45
2023-07-16T18:57:45.529Z,28.38
2023-07-16T19:00:17.516Z,28.34
2023-07-16T19:02:46.371Z,28.26
2023-07-16T19:05:16.615Z,28.19
2023-07-16T19:07:48.181Z,28.14
2023-07-16T19:10:17.362Z,28.07
2023-07-16T19:12:46.254Z,28.01
2023-07-16T19:15:15.293Z,27.93
2023-07-16T19:17:44.359Z,27.78
2023-07-16T19:20:13.968Z,27.71
2023-07-16T19:22:46.002Z,27.63
2023-07-16T19:25:15.493Z,27.50
2023-07-16T19:27:44.663Z,27.41
2023-07-16T19:30:14.206Z,27.38
2023-07-16T19:32:43.348Z,27.35
2023-07-16T19:35:12.931Z,27.29
2023-07-16T19:37:42.271Z,27.22
2023-07-16T19:40:13.539Z,27.15
2023-07-16T19:42:42.474Z,27.09
2023-07-16T19:45:12.303Z,27.04
2023-07-16T19:47:42.546Z,27.00
2023-07-16T19:50:11.605Z,26.95
2023-07-16T19:52:40.479Z,26.88
2023-07-16T19:55:09.701Z,26.86
2023-07-16T19:57:39.263Z,26.81
2023-07-16T20:00:13.183Z,26.75
2023-07-16T20:02:45.118Z,26.70
2023-07-16T20:05:14.194Z,26.67
2023-07-16T20:07:43.739Z,26.63
2023-07-16T20:10:15.645Z,26.57
2023-07-16T20:12:47.099Z,26.54
2023-07-16T20:15:16.027Z,26.47
2023-07-16T20:17:44.928Z,26.41
2023-07-16T20:20:15.918Z,26.35
2023-07-16T20:22:45.810Z,26.33
2023-07-16T20:25:15.038Z,26.30
2023-07-16T20:27:54.503Z,26.27
2023-07-16T20:30:27.370Z,26.23
2023-07-16T20:33:01.274Z,26.20
2023-07-16T20:35:30.379Z,26.15
2023-07-16T20:38:02.011Z,26.11
2023-07-16T20:40:35.006Z,26.08
2023-07-16T20:43:04.563Z,26.04
2023-07-16T20:45:36.172Z,26.01
2023-07-16T20:48:06.174Z,26.00
2023-07-16T20:50:35.430Z,25.97
2023-07-16T20:53:06.229Z,25.92
2023-07-16T20:55:35.043Z,25.89
2023-07-16T20:58:04.523Z,25.87
2023-07-16T21:00:33.258Z,25.83
2023-07-16T21:03:07.920Z,25.79
2023-07-16T21:05:36.940Z,25.73
2023-07-16T21:08:05.860Z,25.63
2023-07-16T21:10:34.826Z,25.58
2023-07-16T21:13:05.968Z,25.54
2023-07-16T21:15:34.846Z,25.55
2023-07-16T21:18:05.399Z,25.52
2023-07-16T21:20:39.335Z,25.46
2023-07-16T21:23:09.337Z,25.41
2023-07-16T21:25:38.537Z,25.49
2023-07-16T21:28:10.233Z,25.58
2023-07-16T21:30:39.624Z,25.55
2023-07-16T21:33:09.521Z,25.56
2023-07-16T21:35:38.383Z,25.56
2023-07-16T21:38:07.283Z,25.51
2023-07-16T21:40:36.422Z,25.56
2023-07-16T21:43:05.259Z,25.49
2023-07-16T21:45:34.348Z,25.44
2023-07-16T21:48:03.404Z,25.38
2023-07-16T21:50:32.501Z,25.36
2023-07-16T21:53:02.465Z,25.34
2023-07-16T21:55:31.471Z,25.24
2023-07-16T21:58:00.346Z,25.22
2023-07-16T22:00:29.351Z,25.12
2023-07-16T22:02:58.506Z,25.09
2023-07-16T22:05:27.527Z,25.01
2023-07-16T22:07:57.144Z,24.93
2023-07-16T22:10:26.462Z,24.85
2023-07-16T22:12:55.373Z,24.77
2023-07-16T22:15:25.201Z,24.72
2023-07-16T22:17:55.028Z,24.69
2023-07-16T22:20:27.238Z,24.65
2023-07-16T22:22:59.505Z,24.61
2023-07-16T22:25:28.469Z,24.55
2023-07-16T22:27:57.798Z,24.48
2023-07-16T22:30:26.957Z,24.41
2023-07-16T22:32:56.004Z,24.36
2023-07-16T22:35:24.988Z,24.30
2023-07-16T22:37:53.981Z,24.24
2023-07-16T22:40:22.889Z,24.16
2023-07-16T22:42:51.877Z,24.13
2023-07-16T22:45:20.685Z,24.08
2023-07-16T22:47:49.593Z,24.00
2023-07-16T22:50:19.467Z,23.98
2023-07-16T22:52:48.198Z,23.94
2023-07-16T22:55:17.157Z,23.91
2023-07-16T22:57:46.137Z,23.88
2023-07-16T23:00:17.056Z,23.81
2023-07-16T23:02:46.646Z,23.75
2023-07-16T23:05:15.913Z,23.65
2023-07-16T23:07:46.418Z,23.61
2023-07-16T23:10:15.356Z,23.54
2023-07-16T23:12:45.529Z,23.44
2023-07-16T23:15:16.654Z,23.29
2023-07-16T23:17:46.328Z,23.18
2023-07-16T23:20:15.170Z,23.06
2023-07-16T23:22:44.046Z,22.95
2023-07-16T23:25:13.472Z,22.82
2023-07-16T23:27:42.378Z,22.64
2023-07-16T23:30:12.418Z,22.45
2023-07-16T23:32:41.165Z,22.25
2023-07-16T23:35:10.196Z,22.07
2023-07-16T23:37:39.158Z,21.94
2023-07-16T23:40:09.507Z,21.84
2023-07-16T23:42:38.268Z,21.79
2023-07-16T23:45:08.774Z,21.75
2023-07-16T23:47:37.820Z,21.65
2023-07-16T23:50:08.189Z,21.58
2023-07-16T23:52:37.014Z,21.52
2023-07-16T23:55:07.599Z,21.48
2023-07-16T23:57:38.222Z,21.46
